sensor_id;sensor_type;location;lat;lon;timestamp;P1;durP1;ratioP1;P2;durP2;ratioP2
46815;SDS011;32787;53.316;8.670;2023-02-03T00:00:49;26.27;;;9.60;;
46815;SDS011;32787;53.316;8.670;2023-02-03T00:03:15;23.65;;;9.90;;
46815;SDS011;32787;53.316;8.670;2023-02-03T00:05:41;23.95;;;9.88;;
46815;SDS011;32787;53.316;8.670;2023-02-03T00:08:07;24.05;;;9.95;;
46815;SDS011;32787;53.316;8.670;2023-02-03T00:10:34;26.92;;;9.73;;
46815;SDS011;32787;53.316;8.670;2023-02-03T00:13:01;27.73;;;10.13;;
46815;SDS011;32787;53.316;8.670;2023-02-03T00:15:27;16.95;;;8.30;;
46815;SDS011;32787;53.316;8.670;2023-02-03T00:17:53;20.98;;;8.82;;
46815;SDS011;32787;53.316;8.670;2023-02-03T00:20:18;25.83;;;7.85;;
46815;SDS011;32787;53.316;8.670;2023-02-03T00:22:44;22.92;;;8.00;;
46815;SDS011;32787;53.316;8.670;2023-02-03T00:25:09;20.33;;;7.88;;
46815;SDS011;32787;53.316;8.670;2023-02-03T00:27:35;16.65;;;6.45;;
46815;SDS011;32787;53.316;8.670;2023-02-03T00:30:01;20.20;;;7.05;;
46815;SDS011;32787;53.316;8.670;2023-02-03T00:32:27;16.65;;;6.55;;
46815;SDS011;32787;53.316;8.670;2023-02-03T00:34:53;14.48;;;6.53;;
46815;SDS011;32787;53.316;8.670;2023-02-03T00:37:19;13.85;;;6.13;;
46815;SDS011;32787;53.316;8.670;2023-02-03T00:39:45;17.80;;;5.68;;
46815;SDS011;32787;53.316;8.670;2023-02-03T00:42:11;16.77;;;6.75;;
46815;SDS011;32787;53.316;8.670;2023-02-03T00:44:36;15.07;;;5.47;;
46815;SDS011;32787;53.316;8.670;2023-02-03T00:47:02;11.57;;;5.20;;
46815;SDS011;32787;53.316;8.670;2023-02-03T00:49:27;15.68;;;5.18;;
46815;SDS011;32787;53.316;8.670;2023-02-03T00:51:53;14.82;;;5.43;;
46815;SDS011;32787;53.316;8.670;2023-02-03T00:54:19;13.57;;;4.93;;
46815;SDS011;32787;53.316;8.670;2023-02-03T00:56:45;13.05;;;4.63;;
46815;SDS011;32787;53.316;8.670;2023-02-03T00:59:10;16.58;;;5.25;;
46815;SDS011;32787;53.316;8.670;2023-02-03T01:01:36;14.05;;;4.47;;
46815;SDS011;32787;53.316;8.670;2023-02-03T01:04:02;8.88;;;3.78;;
46815;SDS011;32787;53.316;8.670;2023-02-03T01:06:28;14.70;;;4.13;;
46815;SDS011;32787;53.316;8.670;2023-02-03T01:08:54;14.90;;;4.50;;
46815;SDS011;32787;53.316;8.670;2023-02-03T01:11:21;10.77;;;4.15;;
46815;SDS011;32787;53.316;8.670;2023-02-03T01:13:50;11.38;;;4.30;;
46815;SDS011;32787;53.316;8.670;2023-02-03T01:16:18;13.30;;;4.47;;
46815;SDS011;32787;53.316;8.670;2023-02-03T01:18:45;12.43;;;4.22;;
46815;SDS011;32787;53.316;8.670;2023-02-03T01:21:12;11.70;;;4.55;;
46815;SDS011;32787;53.316;8.670;2023-02-03T01:23:43;12.25;;;4.20;;
46815;SDS011;32787;53.316;8.670;2023-02-03T01:26:10;10.70;;;4.25;;
46815;SDS011;32787;53.316;8.670;2023-02-03T01:28:38;13.63;;;4.20;;
46815;SDS011;32787;53.316;8.670;2023-02-03T01:33:38;12.35;;;3.88;;
46815;SDS011;32787;53.316;8.670;2023-02-03T01:36:10;12.75;;;3.47;;
46815;SDS011;32787;53.316;8.670;2023-02-03T01:38:36;12.27;;;3.42;;
46815;SDS011;32787;53.316;8.670;2023-02-03T01:41:02;10.77;;;3.50;;
46815;SDS011;32787;53.316;8.670;2023-02-03T01:43:33;12.55;;;3.65;;
46815;SDS011;32787;53.316;8.670;2023-02-03T01:46:26;9.27;;;3.67;;
46815;SDS011;32787;53.316;8.670;2023-02-03T01:48:53;11.15;;;3.42;;
46815;SDS011;32787;53.316;8.670;2023-02-03T01:51:41;11.65;;;3.30;;
46815;SDS011;32787;53.316;8.670;2023-02-03T01:54:09;10.05;;;2.72;;
46815;SDS011;32787;53.316;8.670;2023-02-03T01:56:42;8.90;;;2.97;;
46815;SDS011;32787;53.316;8.670;2023-02-03T01:59:11;12.77;;;2.90;;
46815;SDS011;32787;53.316;8.670;2023-02-03T02:01:40;11.88;;;3.83;;
46815;SDS011;32787;53.316;8.670;2023-02-03T02:04:06;11.85;;;3.33;;
46815;SDS011;32787;53.316;8.670;2023-02-03T02:06:33;13.02;;;2.90;;
46815;SDS011;32787;53.316;8.670;2023-02-03T02:08:58;9.85;;;2.85;;
46815;SDS011;32787;53.316;8.670;2023-02-03T02:11:25;11.82;;;3.47;;
46815;SDS011;32787;53.316;8.670;2023-02-03T02:13:52;11.10;;;3.03;;
46815;SDS011;32787;53.316;8.670;2023-02-03T02:27:30;9.20;;;2.58;;
46815;SDS011;32787;53.316;8.670;2023-02-03T02:31:07;9.20;;;2.55;;
46815;SDS011;32787;53.316;8.670;2023-02-03T02:33:39;10.95;;;3.20;;
46815;SDS011;32787;53.316;8.670;2023-02-03T02:38:58;7.97;;;2.75;;
46815;SDS011;32787;53.316;8.670;2023-02-03T02:41:37;13.50;;;3.45;;
46815;SDS011;32787;53.316;8.670;2023-02-03T02:44:11;9.73;;;2.65;;
46815;SDS011;32787;53.316;8.670;2023-02-03T02:46:57;9.98;;;3.03;;
46815;SDS011;32787;53.316;8.670;2023-02-03T02:49:43;8.80;;;2.92;;
46815;SDS011;32787;53.316;8.670;2023-02-03T02:52:30;8.35;;;2.63;;
46815;SDS011;32787;53.316;8.670;2023-02-03T02:55:02;12.75;;;2.95;;
46815;SDS011;32787;53.316;8.670;2023-02-03T02:57:34;10.50;;;3.20;;
46815;SDS011;32787;53.316;8.670;2023-02-03T03:00:02;14.88;;;4.15;;
46815;SDS011;32787;53.316;8.670;2023-02-03T03:02:32;12.25;;;3.30;;
46815;SDS011;32787;53.316;8.670;2023-02-03T03:04:59;8.88;;;2.92;;
46815;SDS011;32787;53.316;8.670;2023-02-03T03:07:29;7.80;;;3.08;;
46815;SDS011;32787;53.316;8.670;2023-02-03T03:10:00;10.10;;;2.85;;
46815;SDS011;32787;53.316;8.670;2023-02-03T03:12:36;11.10;;;2.97;;
46815;SDS011;32787;53.316;8.670;2023-02-03T03:15:06;9.65;;;2.97;;
46815;SDS011;32787;53.316;8.670;2023-02-03T03:17:45;14.02;;;3.03;;
46815;SDS011;32787;53.316;8.670;2023-02-03T03:20:19;11.90;;;3.45;;
46815;SDS011;32787;53.316;8.670;2023-02-03T03:22:49;12.93;;;2.90;;
46815;SDS011;32787;53.316;8.670;2023-02-03T03:25:24;11.38;;;3.15;;
46815;SDS011;32787;53.316;8.670;2023-02-03T03:30:33;10.13;;;3.22;;
46815;SDS011;32787;53.316;8.670;2023-02-03T03:33:01;12.10;;;3.47;;
46815;SDS011;32787;53.316;8.670;2023-02-03T03:35:30;11.23;;;4.35;;
46815;SDS011;32787;53.316;8.670;2023-02-03T03:38:23;6.93;;;2.63;;
46815;SDS011;32787;53.316;8.670;2023-02-03T03:41:07;12.93;;;3.47;;
46815;SDS011;32787;53.316;8.670;2023-02-03T03:44:09;10.40;;;2.85;;
46815;SDS011;32787;53.316;8.670;2023-02-03T03:46:42;10.65;;;3.60;;
46815;SDS011;32787;53.316;8.670;2023-02-03T03:49:14;10.48;;;3.00;;
46815;SDS011;32787;53.316;8.670;2023-02-03T03:51:43;11.00;;;2.97;;
46815;SDS011;32787;53.316;8.670;2023-02-03T03:54:13;11.32;;;3.42;;
46815;SDS011;32787;53.316;8.670;2023-02-03T03:56:47;15.90;;;3.35;;
46815;SDS011;32787;53.316;8.670;2023-02-03T03:59:24;13.55;;;3.20;;
46815;SDS011;32787;53.316;8.670;2023-02-03T04:01:55;9.13;;;2.83;;
46815;SDS011;32787;53.316;8.670;2023-02-03T04:04:23;10.23;;;2.75;;
46815;SDS011;32787;53.316;8.670;2023-02-03T04:06:51;11.60;;;3.53;;
46815;SDS011;32787;53.316;8.670;2023-02-03T04:09:17;9.15;;;2.83;;
46815;SDS011;32787;53.316;8.670;2023-02-03T04:11:43;12.30;;;3.47;;
46815;SDS011;32787;53.316;8.670;2023-02-03T04:14:34;12.30;;;3.15;;
46815;SDS011;32787;53.316;8.670;2023-02-03T04:17:02;10.73;;;2.75;;
46815;SDS011;32787;53.316;8.670;2023-02-03T04:19:28;12.15;;;2.85;;
46815;SDS011;32787;53.316;8.670;2023-02-03T04:21:54;13.07;;;2.97;;
46815;SDS011;32787;53.316;8.670;2023-02-03T04:24:20;11.45;;;2.88;;
46815;SDS011;32787;53.316;8.670;2023-02-03T04:26:45;12.93;;;2.60;;
46815;SDS011;32787;53.316;8.670;2023-02-03T04:29:11;10.43;;;3.50;;
46815;SDS011;32787;53.316;8.670;2023-02-03T04:31:37;8.15;;;2.33;;
46815;SDS011;32787;53.316;8.670;2023-02-03T04:34:03;10.23;;;2.72;;
46815;SDS011;32787;53.316;8.670;2023-02-03T04:36:29;14.95;;;3.03;;
46815;SDS011;32787;53.316;8.670;2023-02-03T04:38:55;12.73;;;4.03;;
46815;SDS011;32787;53.316;8.670;2023-02-03T04:41:20;14.90;;;2.90;;
46815;SDS011;32787;53.316;8.670;2023-02-03T04:43:46;12.38;;;3.50;;
46815;SDS011;32787;53.316;8.670;2023-02-03T04:46:12;10.23;;;3.08;;
46815;SDS011;32787;53.316;8.670;2023-02-03T04:48:37;11.85;;;2.97;;
46815;SDS011;32787;53.316;8.670;2023-02-03T04:51:04;21.33;;;4.00;;
46815;SDS011;32787;53.316;8.670;2023-02-03T04:53:31;12.40;;;2.67;;
46815;SDS011;32787;53.316;8.670;2023-02-03T04:55:57;17.83;;;3.50;;
46815;SDS011;32787;53.316;8.670;2023-02-03T04:58:23;16.20;;;3.45;;
46815;SDS011;32787;53.316;8.670;2023-02-03T05:00:51;17.98;;;3.92;;
46815;SDS011;32787;53.316;8.670;2023-02-03T05:03:17;13.50;;;3.17;;
46815;SDS011;32787;53.316;8.670;2023-02-03T05:05:42;15.73;;;3.65;;
46815;SDS011;32787;53.316;8.670;2023-02-03T05:08:08;10.90;;;2.90;;
46815;SDS011;32787;53.316;8.670;2023-02-03T05:10:34;14.48;;;3.17;;
46815;SDS011;32787;53.316;8.670;2023-02-03T05:13:00;12.23;;;3.42;;
46815;SDS011;32787;53.316;8.670;2023-02-03T05:15:25;15.65;;;2.97;;
46815;SDS011;32787;53.316;8.670;2023-02-03T05:17:51;12.35;;;3.13;;
46815;SDS011;32787;53.316;8.670;2023-02-03T05:20:18;21.50;;;3.13;;
46815;SDS011;32787;53.316;8.670;2023-02-03T05:22:44;14.75;;;3.25;;
46815;SDS011;32787;53.316;8.670;2023-02-03T05:25:09;17.80;;;3.40;;
46815;SDS011;32787;53.316;8.670;2023-02-03T05:27:38;19.55;;;3.75;;
46815;SDS011;32787;53.316;8.670;2023-02-03T05:30:06;12.68;;;3.30;;
46815;SDS011;32787;53.316;8.670;2023-02-03T05:32:32;12.88;;;4.03;;
46815;SDS011;32787;53.316;8.670;2023-02-03T05:34:58;18.40;;;3.42;;
46815;SDS011;32787;53.316;8.670;2023-02-03T05:37:24;12.20;;;3.20;;
46815;SDS011;32787;53.316;8.670;2023-02-03T05:39:49;15.32;;;3.53;;
46815;SDS011;32787;53.316;8.670;2023-02-03T05:42:15;19.88;;;3.47;;
46815;SDS011;32787;53.316;8.670;2023-02-03T05:44:40;12.68;;;3.80;;
46815;SDS011;32787;53.316;8.670;2023-02-03T05:47:06;19.05;;;4.43;;
46815;SDS011;32787;53.316;8.670;2023-02-03T05:49:32;15.20;;;3.60;;
46815;SDS011;32787;53.316;8.670;2023-02-03T05:51:57;21.65;;;5.05;;
46815;SDS011;32787;53.316;8.670;2023-02-03T05:54:23;16.10;;;3.90;;
46815;SDS011;32787;53.316;8.670;2023-02-03T05:56:49;14.68;;;3.88;;
46815;SDS011;32787;53.316;8.670;2023-02-03T05:59:14;20.20;;;5.00;;
46815;SDS011;32787;53.316;8.670;2023-02-03T06:01:40;19.60;;;4.68;;
46815;SDS011;32787;53.316;8.670;2023-02-03T06:04:06;18.15;;;4.38;;
46815;SDS011;32787;53.316;8.670;2023-02-03T06:06:31;16.42;;;4.85;;
46815;SDS011;32787;53.316;8.670;2023-02-03T06:09:07;15.55;;;3.97;;
46815;SDS011;32787;53.316;8.670;2023-02-03T06:11:33;15.35;;;4.25;;
46815;SDS011;32787;53.316;8.670;2023-02-03T06:14:00;16.60;;;4.20;;
46815;SDS011;32787;53.316;8.670;2023-02-03T06:16:26;17.42;;;4.50;;
46815;SDS011;32787;53.316;8.670;2023-02-03T06:18:53;16.13;;;4.05;;
46815;SDS011;32787;53.316;8.670;2023-02-03T06:21:22;18.98;;;4.05;;
46815;SDS011;32787;53.316;8.670;2023-02-03T06:23:48;17.27;;;4.32;;
46815;SDS011;32787;53.316;8.670;2023-02-03T06:26:13;17.45;;;4.50;;
46815;SDS011;32787;53.316;8.670;2023-02-03T06:28:39;17.40;;;4.10;;
46815;SDS011;32787;53.316;8.670;2023-02-03T06:31:05;17.70;;;3.65;;
46815;SDS011;32787;53.316;8.670;2023-02-03T06:33:31;12.68;;;3.33;;
46815;SDS011;32787;53.316;8.670;2023-02-03T06:35:57;15.70;;;3.40;;
46815;SDS011;32787;53.316;8.670;2023-02-03T06:38:23;14.45;;;4.28;;
46815;SDS011;32787;53.316;8.670;2023-02-03T06:40:49;20.40;;;5.03;;
46815;SDS011;32787;53.316;8.670;2023-02-03T06:43:15;14.45;;;3.35;;
46815;SDS011;32787;53.316;8.670;2023-02-03T06:45:41;17.50;;;4.55;;
46815;SDS011;32787;53.316;8.670;2023-02-03T06:48:09;24.60;;;4.38;;
46815;SDS011;32787;53.316;8.670;2023-02-03T06:50:35;20.20;;;3.63;;
46815;SDS011;32787;53.316;8.670;2023-02-03T06:53:01;11.43;;;4.00;;
46815;SDS011;32787;53.316;8.670;2023-02-03T06:55:26;17.38;;;3.88;;
46815;SDS011;32787;53.316;8.670;2023-02-03T06:57:52;15.50;;;3.90;;
46815;SDS011;32787;53.316;8.670;2023-02-03T07:00:17;15.80;;;3.13;;
46815;SDS011;32787;53.316;8.670;2023-02-03T07:02:43;17.00;;;3.80;;
46815;SDS011;32787;53.316;8.670;2023-02-03T07:05:09;13.15;;;3.40;;
46815;SDS011;32787;53.316;8.670;2023-02-03T07:07:35;12.90;;;3.55;;
46815;SDS011;32787;53.316;8.670;2023-02-03T07:10:03;12.80;;;3.08;;
46815;SDS011;32787;53.316;8.670;2023-02-03T07:12:30;14.57;;;3.40;;
46815;SDS011;32787;53.316;8.670;2023-02-03T07:14:56;11.32;;;3.08;;
46815;SDS011;32787;53.316;8.670;2023-02-03T07:17:21;15.38;;;3.22;;
46815;SDS011;32787;53.316;8.670;2023-02-03T07:19:47;17.95;;;3.70;;
46815;SDS011;32787;53.316;8.670;2023-02-03T07:22:13;14.43;;;3.72;;
46815;SDS011;32787;53.316;8.670;2023-02-03T07:24:39;15.65;;;3.08;;
46815;SDS011;32787;53.316;8.670;2023-02-03T07:27:04;18.92;;;3.55;;
46815;SDS011;32787;53.316;8.670;2023-02-03T07:29:30;13.50;;;3.45;;
46815;SDS011;32787;53.316;8.670;2023-02-03T07:31:55;17.33;;;3.70;;
46815;SDS011;32787;53.316;8.670;2023-02-03T07:34:21;17.75;;;3.97;;
46815;SDS011;32787;53.316;8.670;2023-02-03T07:36:47;16.95;;;3.30;;
46815;SDS011;32787;53.316;8.670;2023-02-03T07:39:12;16.75;;;2.92;;
46815;SDS011;32787;53.316;8.670;2023-02-03T07:41:38;16.77;;;3.42;;
46815;SDS011;32787;53.316;8.670;2023-02-03T07:44:04;16.48;;;3.20;;
46815;SDS011;32787;53.316;8.670;2023-02-03T07:46:29;13.43;;;2.72;;
46815;SDS011;32787;53.316;8.670;2023-02-03T07:48:55;14.93;;;3.70;;
46815;SDS011;32787;53.316;8.670;2023-02-03T07:51:21;17.42;;;3.13;;
46815;SDS011;32787;53.316;8.670;2023-02-03T07:53:46;15.77;;;3.00;;
46815;SDS011;32787;53.316;8.670;2023-02-03T07:56:12;19.33;;;3.80;;
46815;SDS011;32787;53.316;8.670;2023-02-03T07:58:38;16.73;;;3.30;;
46815;SDS011;32787;53.316;8.670;2023-02-03T08:01:11;17.55;;;3.10;;
46815;SDS011;32787;53.316;8.670;2023-02-03T08:03:38;20.90;;;4.07;;
46815;SDS011;32787;53.316;8.670;2023-02-03T08:06:04;17.88;;;3.67;;
46815;SDS011;32787;53.316;8.670;2023-02-03T08:08:30;18.38;;;3.65;;
46815;SDS011;32787;53.316;8.670;2023-02-03T08:10:56;22.38;;;3.33;;
46815;SDS011;32787;53.316;8.670;2023-02-03T08:13:21;23.60;;;3.90;;
46815;SDS011;32787;53.316;8.670;2023-02-03T08:15:47;23.50;;;4.22;;
46815;SDS011;32787;53.316;8.670;2023-02-03T08:18:13;24.88;;;4.43;;
46815;SDS011;32787;53.316;8.670;2023-02-03T08:20:39;24.42;;;3.95;;
46815;SDS011;32787;53.316;8.670;2023-02-03T08:23:04;22.42;;;3.90;;
46815;SDS011;32787;53.316;8.670;2023-02-03T08:25:30;24.75;;;4.13;;
46815;SDS011;32787;53.316;8.670;2023-02-03T08:27:56;27.20;;;5.03;;
46815;SDS011;32787;53.316;8.670;2023-02-03T08:30:21;25.27;;;5.70;;
46815;SDS011;32787;53.316;8.670;2023-02-03T08:32:47;23.63;;;4.43;;
46815;SDS011;32787;53.316;8.670;2023-02-03T08:35:13;28.50;;;5.22;;
46815;SDS011;32787;53.316;8.670;2023-02-03T08:37:39;28.60;;;5.03;;
46815;SDS011;32787;53.316;8.670;2023-02-03T08:40:05;25.30;;;5.03;;
46815;SDS011;32787;53.316;8.670;2023-02-03T08:42:31;21.77;;;4.72;;
46815;SDS011;32787;53.316;8.670;2023-02-03T08:44:57;30.17;;;5.25;;
46815;SDS011;32787;53.316;8.670;2023-02-03T08:47:23;27.58;;;4.50;;
46815;SDS011;32787;53.316;8.670;2023-02-03T08:49:49;26.55;;;4.15;;
46815;SDS011;32787;53.316;8.670;2023-02-03T08:52:15;21.83;;;5.32;;
46815;SDS011;32787;53.316;8.670;2023-02-03T08:54:40;20.00;;;3.20;;
46815;SDS011;32787;53.316;8.670;2023-02-03T08:57:06;20.55;;;4.20;;
46815;SDS011;32787;53.316;8.670;2023-02-03T08:59:32;23.23;;;3.88;;
46815;SDS011;32787;53.316;8.670;2023-02-03T09:02:01;22.95;;;3.85;;
46815;SDS011;32787;53.316;8.670;2023-02-03T09:04:30;31.63;;;5.10;;
46815;SDS011;32787;53.316;8.670;2023-02-03T09:06:57;24.30;;;5.25;;
46815;SDS011;32787;53.316;8.670;2023-02-03T09:09:23;25.73;;;4.57;;
46815;SDS011;32787;53.316;8.670;2023-02-03T09:11:50;25.27;;;5.22;;
46815;SDS011;32787;53.316;8.670;2023-02-03T09:14:17;38.22;;;6.25;;
46815;SDS011;32787;53.316;8.670;2023-02-03T09:16:43;31.15;;;5.65;;
46815;SDS011;32787;53.316;8.670;2023-02-03T09:19:08;36.33;;;5.22;;
46815;SDS011;32787;53.316;8.670;2023-02-03T09:21:34;26.83;;;4.38;;
46815;SDS011;32787;53.316;8.670;2023-02-03T09:24:00;31.80;;;5.13;;
46815;SDS011;32787;53.316;8.670;2023-02-03T09:26:27;26.23;;;5.75;;
46815;SDS011;32787;53.316;8.670;2023-02-03T09:28:52;37.58;;;5.55;;
46815;SDS011;32787;53.316;8.670;2023-02-03T09:31:18;39.97;;;5.53;;
46815;SDS011;32787;53.316;8.670;2023-02-03T09:33:44;29.52;;;4.68;;
46815;SDS011;32787;53.316;8.670;2023-02-03T09:36:10;35.08;;;5.35;;
46815;SDS011;32787;53.316;8.670;2023-02-03T09:38:36;32.67;;;5.93;;
46815;SDS011;32787;53.316;8.670;2023-02-03T09:46:20;29.05;;;4.55;;
46815;SDS011;32787;53.316;8.670;2023-02-03T09:48:56;28.98;;;5.75;;
46815;SDS011;32787;53.316;8.670;2023-02-03T09:51:29;27.50;;;5.25;;
46815;SDS011;32787;53.316;8.670;2023-02-03T09:57:04;31.90;;;5.80;;
46815;SDS011;32787;53.316;8.670;2023-02-03T09:59:36;34.70;;;6.78;;
46815;SDS011;32787;53.316;8.670;2023-02-03T10:02:46;39.13;;;5.47;;
46815;SDS011;32787;53.316;8.670;2023-02-03T10:10:16;38.92;;;6.90;;
46815;SDS011;32787;53.316;8.670;2023-02-03T10:13:08;38.67;;;5.32;;
46815;SDS011;32787;53.316;8.670;2023-02-03T10:16:06;35.90;;;7.85;;
46815;SDS011;32787;53.316;8.670;2023-02-03T10:18:40;29.67;;;5.93;;
46815;SDS011;32787;53.316;8.670;2023-02-03T10:23:56;32.05;;;5.45;;
46815;SDS011;32787;53.316;8.670;2023-02-03T10:26:25;39.20;;;5.72;;
46815;SDS011;32787;53.316;8.670;2023-02-03T10:28:53;46.17;;;7.22;;
46815;SDS011;32787;53.316;8.670;2023-02-03T10:31:26;37.05;;;5.82;;
46815;SDS011;32787;53.316;8.670;2023-02-03T10:34:00;38.17;;;6.65;;
46815;SDS011;32787;53.316;8.670;2023-02-03T10:39:31;31.08;;;6.13;;
46815;SDS011;32787;53.316;8.670;2023-02-03T10:42:00;40.35;;;6.80;;
46815;SDS011;32787;53.316;8.670;2023-02-03T10:44:30;29.90;;;5.78;;
46815;SDS011;32787;53.316;8.670;2023-02-03T10:47:23;31.92;;;6.15;;
46815;SDS011;32787;53.316;8.670;2023-02-03T10:49:52;38.30;;;5.90;;
46815;SDS011;32787;53.316;8.670;2023-02-03T10:52:27;38.80;;;6.18;;
46815;SDS011;32787;53.316;8.670;2023-02-03T10:54:58;32.53;;;6.45;;
46815;SDS011;32787;53.316;8.670;2023-02-03T10:57:29;39.30;;;6.43;;
46815;SDS011;32787;53.316;8.670;2023-02-03T11:00:03;34.88;;;6.05;;
46815;SDS011;32787;53.316;8.670;2023-02-03T11:02:45;37.00;;;5.78;;
46815;SDS011;32787;53.316;8.670;2023-02-03T11:05:24;34.65;;;5.22;;
46815;SDS011;32787;53.316;8.670;2023-02-03T11:07:50;31.48;;;5.60;;
46815;SDS011;32787;53.316;8.670;2023-02-03T11:10:24;36.38;;;6.15;;
46815;SDS011;32787;53.316;8.670;2023-02-03T11:15:51;35.00;;;5.82;;
46815;SDS011;32787;53.316;8.670;2023-02-03T11:18:28;34.00;;;5.75;;
46815;SDS011;32787;53.316;8.670;2023-02-03T11:20:55;40.38;;;6.90;;
46815;SDS011;32787;53.316;8.670;2023-02-03T11:23:22;42.85;;;6.97;;
46815;SDS011;32787;53.316;8.670;2023-02-03T11:25:47;41.05;;;6.05;;
46815;SDS011;32787;53.316;8.670;2023-02-03T11:28:13;38.28;;;5.70;;
46815;SDS011;32787;53.316;8.670;2023-02-03T11:30:39;39.20;;;6.30;;
46815;SDS011;32787;53.316;8.670;2023-02-03T11:33:15;40.67;;;5.85;;
46815;SDS011;32787;53.316;8.670;2023-02-03T11:35:54;35.42;;;5.22;;
46815;SDS011;32787;53.316;8.670;2023-02-03T11:38:41;34.47;;;5.32;;
46815;SDS011;32787;53.316;8.670;2023-02-03T11:41:18;26.58;;;4.50;;
46815;SDS011;32787;53.316;8.670;2023-02-03T11:43:45;31.48;;;5.07;;
46815;SDS011;32787;53.316;8.670;2023-02-03T11:46:11;29.23;;;5.68;;
46815;SDS011;32787;53.316;8.670;2023-02-03T11:54:33;28.90;;;5.22;;
46815;SDS011;32787;53.316;8.670;2023-02-03T11:57:29;31.17;;;4.63;;
46815;SDS011;32787;53.316;8.670;2023-02-03T12:10:56;37.95;;;6.65;;
46815;SDS011;32787;53.316;8.670;2023-02-03T12:28:11;27.60;;;4.85;;
46815;SDS011;32787;53.316;8.670;2023-02-03T12:30:47;39.38;;;6.03;;
46815;SDS011;32787;53.316;8.670;2023-02-03T12:33:20;28.42;;;4.97;;
46815;SDS011;32787;53.316;8.670;2023-02-03T12:36:07;33.15;;;5.13;;
46815;SDS011;32787;53.316;8.670;2023-02-03T12:38:45;34.17;;;5.82;;
46815;SDS011;32787;53.316;8.670;2023-02-03T12:41:23;26.80;;;4.47;;
46815;SDS011;32787;53.316;8.670;2023-02-03T12:43:59;39.58;;;6.15;;
46815;SDS011;32787;53.316;8.670;2023-02-03T12:46:35;35.58;;;6.05;;
46815;SDS011;32787;53.316;8.670;2023-02-03T12:52:01;33.88;;;5.28;;
46815;SDS011;32787;53.316;8.670;2023-02-03T12:59:45;34.38;;;5.68;;
46815;SDS011;32787;53.316;8.670;2023-02-03T13:02:39;27.40;;;5.00;;
46815;SDS011;32787;53.316;8.670;2023-02-03T13:05:18;34.97;;;5.05;;
46815;SDS011;32787;53.316;8.670;2023-02-03T13:07:57;28.45;;;4.95;;
46815;SDS011;32787;53.316;8.670;2023-02-03T13:10:32;33.53;;;4.88;;
46815;SDS011;32787;53.316;8.670;2023-02-03T13:13:13;22.65;;;4.03;;
46815;SDS011;32787;53.316;8.670;2023-02-03T13:15:45;33.90;;;5.47;;
46815;SDS011;32787;53.316;8.670;2023-02-03T13:18:24;23.83;;;4.35;;
46815;SDS011;32787;53.316;8.670;2023-02-03T13:20:54;32.33;;;4.80;;
46815;SDS011;32787;53.316;8.670;2023-02-03T13:23:20;30.65;;;5.30;;
46815;SDS011;32787;53.316;8.670;2023-02-03T13:29:05;33.67;;;5.05;;
46815;SDS011;32787;53.316;8.670;2023-02-03T13:38:27;32.15;;;5.70;;
46815;SDS011;32787;53.316;8.670;2023-02-03T13:43:52;29.92;;;4.65;;
46815;SDS011;32787;53.316;8.670;2023-02-03T13:46:25;28.50;;;4.80;;
46815;SDS011;32787;53.316;8.670;2023-02-03T13:48:55;28.70;;;5.70;;
46815;SDS011;32787;53.316;8.670;2023-02-03T13:51:24;26.05;;;4.70;;
46815;SDS011;32787;53.316;8.670;2023-02-03T13:53:58;35.38;;;5.00;;
46815;SDS011;32787;53.316;8.670;2023-02-03T13:56:29;31.98;;;4.22;;
46815;SDS011;32787;53.316;8.670;2023-02-03T13:59:00;26.63;;;4.35;;
46815;SDS011;32787;53.316;8.670;2023-02-03T14:01:28;29.58;;;4.55;;
46815;SDS011;32787;53.316;8.670;2023-02-03T14:03:59;38.28;;;5.22;;
46815;SDS011;32787;53.316;8.670;2023-02-03T14:12:16;27.10;;;4.80;;
46815;SDS011;32787;53.316;8.670;2023-02-03T14:14:54;25.15;;;4.25;;
46815;SDS011;32787;53.316;8.670;2023-02-03T14:19:59;34.22;;;4.63;;
46815;SDS011;32787;53.316;8.670;2023-02-03T14:22:25;18.98;;;3.90;;
46815;SDS011;32787;53.316;8.670;2023-02-03T14:24:54;33.15;;;4.13;;
46815;SDS011;32787;53.316;8.670;2023-02-03T14:27:27;22.80;;;4.25;;
46815;SDS011;32787;53.316;8.670;2023-02-03T14:30:07;26.42;;;3.88;;
46815;SDS011;32787;53.316;8.670;2023-02-03T14:33:08;31.38;;;4.90;;
46815;SDS011;32787;53.316;8.670;2023-02-03T14:35:31;37.40;;;4.55;;
46815;SDS011;32787;53.316;8.670;2023-02-03T14:37:59;30.48;;;4.40;;
46815;SDS011;32787;53.316;8.670;2023-02-03T14:40:50;27.40;;;4.75;;
46815;SDS011;32787;53.316;8.670;2023-02-03T14:52:17;28.08;;;4.32;;
46815;SDS011;32787;53.316;8.670;2023-02-03T15:00:57;31.08;;;5.40;;
46815;SDS011;32787;53.316;8.670;2023-02-03T15:03:24;33.30;;;5.45;;
46815;SDS011;32787;53.316;8.670;2023-02-03T15:05:53;30.88;;;4.80;;
46815;SDS011;32787;53.316;8.670;2023-02-03T15:14:17;30.02;;;4.90;;
46815;SDS011;32787;53.316;8.670;2023-02-03T15:16:43;27.85;;;4.88;;
46815;SDS011;32787;53.316;8.670;2023-02-03T15:19:14;29.70;;;4.95;;
46815;SDS011;32787;53.316;8.670;2023-02-03T15:21:42;34.90;;;4.97;;
46815;SDS011;32787;53.316;8.670;2023-02-03T15:24:12;31.67;;;4.22;;
46815;SDS011;32787;53.316;8.670;2023-02-03T15:26:49;39.13;;;4.90;;
46815;SDS011;32787;53.316;8.670;2023-02-03T15:31:49;36.00;;;5.25;;
46815;SDS011;32787;53.316;8.670;2023-02-03T15:34:34;27.10;;;5.00;;
46815;SDS011;32787;53.316;8.670;2023-02-03T15:37:15;31.10;;;5.15;;
46815;SDS011;32787;53.316;8.670;2023-02-03T15:39:51;31.10;;;4.72;;
46815;SDS011;32787;53.316;8.670;2023-02-03T15:42:32;29.50;;;4.57;;
46815;SDS011;32787;53.316;8.670;2023-02-03T15:45:37;27.13;;;5.68;;
46815;SDS011;32787;53.316;8.670;2023-02-03T15:50:55;28.98;;;5.07;;
46815;SDS011;32787;53.316;8.670;2023-02-03T15:53:59;34.60;;;5.78;;
46815;SDS011;32787;53.316;8.670;2023-02-03T16:02:00;33.38;;;5.70;;
46815;SDS011;32787;53.316;8.670;2023-02-03T16:04:31;29.25;;;4.50;;
46815;SDS011;32787;53.316;8.670;2023-02-03T16:06:56;34.08;;;4.80;;
46815;SDS011;32787;53.316;8.670;2023-02-03T16:09:27;36.97;;;4.80;;
46815;SDS011;32787;53.316;8.670;2023-02-03T16:12:13;33.05;;;5.95;;
46815;SDS011;32787;53.316;8.670;2023-02-03T16:14:41;33.85;;;5.30;;
46815;SDS011;32787;53.316;8.670;2023-02-03T16:20:41;39.35;;;5.40;;
46815;SDS011;32787;53.316;8.670;2023-02-03T16:22:45;36.10;;;5.07;;
46815;SDS011;32787;53.316;8.670;2023-02-03T16:25:27;35.95;;;5.65;;
46815;SDS011;32787;53.316;8.670;2023-02-03T16:27:58;33.45;;;5.63;;
46815;SDS011;32787;53.316;8.670;2023-02-03T16:31:02;30.65;;;5.45;;
46815;SDS011;32787;53.316;8.670;2023-02-03T16:33:57;37.13;;;5.47;;
46815;SDS011;32787;53.316;8.670;2023-02-03T16:36:44;33.72;;;5.45;;
46815;SDS011;32787;53.316;8.670;2023-02-03T16:39:28;34.08;;;5.05;;
46815;SDS011;32787;53.316;8.670;2023-02-03T16:42:15;37.90;;;4.82;;
46815;SDS011;32787;53.316;8.670;2023-02-03T16:45:00;34.00;;;5.38;;
46815;SDS011;32787;53.316;8.670;2023-02-03T16:47:46;33.83;;;5.15;;
46815;SDS011;32787;53.316;8.670;2023-02-03T16:50:31;37.08;;;5.22;;
46815;SDS011;32787;53.316;8.670;2023-02-03T16:53:16;44.30;;;5.28;;
46815;SDS011;32787;53.316;8.670;2023-02-03T16:55:44;37.88;;;5.25;;
46815;SDS011;32787;53.316;8.670;2023-02-03T16:58:10;28.85;;;6.32;;
46815;SDS011;32787;53.316;8.670;2023-02-03T17:00:43;39.72;;;5.80;;
46815;SDS011;32787;53.316;8.670;2023-02-03T17:03:17;39.55;;;5.50;;
46815;SDS011;32787;53.316;8.670;2023-02-03T17:05:45;37.30;;;6.32;;
46815;SDS011;32787;53.316;8.670;2023-02-03T17:08:12;33.97;;;6.43;;
46815;SDS011;32787;53.316;8.670;2023-02-03T17:10:39;27.60;;;4.60;;
46815;SDS011;32787;53.316;8.670;2023-02-03T17:13:07;44.30;;;5.45;;